Weather at Mactan Cebu International Airport

Public forecast

Using degrees Celsius for public forecast. Weather courtesy of forecast.io.

Current aviation weather report (METAR) for Mactan Cebu International Airport

Retrieved 2021/07/30 19:00 UTC (34 minutes ago):

RPVM 301900Z 22005KT 9999 FEW020 27/23 Q1010 RMK A2983

Aviation forecast (TAF) for Mactan Cebu International Airport

Retrieved 2021/07/30 18:21 UTC (1 hour ago):

TAF RPVM 301700Z 3018/3124 22010KT 9999 FEW020 BKN300 TEMPO 3018/3024 FEW020 BKN100 TEMPO 3100/3106 22013KT